sensor_id;sensor_type;location;lat;lon;timestamp;temperature;humidity
49549;DHT22;35450;44.518;7.466;2023-04-27T00:01:54;15.00;65.80
49549;DHT22;35450;44.518;7.466;2023-04-27T00:04:58;14.80;65.60
49549;DHT22;35450;44.518;7.466;2023-04-27T00:08:02;14.90;66.50
49549;DHT22;35450;44.518;7.466;2023-04-27T00:11:06;14.80;66.50
49549;DHT22;35450;44.518;7.466;2023-04-27T00:14:10;14.80;66.80
49549;DHT22;35450;44.518;7.466;2023-04-27T00:17:14;14.60;66.40
49549;DHT22;35450;44.518;7.466;2023-04-27T00:20:18;14.50;66.60
49549;DHT22;35450;44.518;7.466;2023-04-27T00:23:23;14.60;66.60
49549;DHT22;35450;44.518;7.466;2023-04-27T00:26:27;14.60;66.50
49549;DHT22;35450;44.518;7.466;2023-04-27T00:29:31;14.60;66.50
49549;DHT22;35450;44.518;7.466;2023-04-27T00:32:35;14.50;66.20
49549;DHT22;35450;44.518;7.466;2023-04-27T00:35:39;14.40;66.50
49549;DHT22;35450;44.518;7.466;2023-04-27T00:38:43;14.50;66.50
49549;DHT22;35450;44.518;7.466;2023-04-27T00:41:47;14.60;65.80
49549;DHT22;35450;44.518;7.466;2023-04-27T00:44:51;14.50;66.00
49549;DHT22;35450;44.518;7.466;2023-04-27T00:47:55;14.40;66.60
49549;DHT22;35450;44.518;7.466;2023-04-27T00:50:59;14.40;66.40
49549;DHT22;35450;44.518;7.466;2023-04-27T00:54:04;14.40;66.20
49549;DHT22;35450;44.518;7.466;2023-04-27T00:57:09;14.30;66.40
49549;DHT22;35450;44.518;7.466;2023-04-27T01:00:13;14.40;66.30
49549;DHT22;35450;44.518;7.466;2023-04-27T01:03:18;14.50;66.30
49549;DHT22;35450;44.518;7.466;2023-04-27T01:06:22;14.50;66.50
49549;DHT22;35450;44.518;7.466;2023-04-27T01:09:26;14.50;66.20
49549;DHT22;35450;44.518;7.466;2023-04-27T01:12:30;14.40;66.40
49549;DHT22;35450;44.518;7.466;2023-04-27T01:15:34;14.40;66.40
49549;DHT22;35450;44.518;7.466;2023-04-27T01:18:38;14.30;66.80
49549;DHT22;35450;44.518;7.466;2023-04-27T01:21:43;14.40;67.20
49549;DHT22;35450;44.518;7.466;2023-04-27T01:24:47;14.40;67.50
49549;DHT22;35450;44.518;7.466;2023-04-27T01:27:51;14.40;67.50
49549;DHT22;35450;44.518;7.466;2023-04-27T01:30:57;14.30;67.50
49549;DHT22;35450;44.518;7.466;2023-04-27T01:34:02;14.30;67.50
49549;DHT22;35450;44.518;7.466;2023-04-27T01:37:07;14.20;67.90
49549;DHT22;35450;44.518;7.466;2023-04-27T01:40:11;14.10;68.60
49549;DHT22;35450;44.518;7.466;2023-04-27T01:43:15;14.20;68.70
49549;DHT22;35450;44.518;7.466;2023-04-27T01:46:19;14.20;68.20
49549;DHT22;35450;44.518;7.466;2023-04-27T01:49:23;14.20;68.30
49549;DHT22;35450;44.518;7.466;2023-04-27T01:52:27;14.30;68.20
49549;DHT22;35450;44.518;7.466;2023-04-27T01:55:32;14.30;68.40
49549;DHT22;35450;44.518;7.466;2023-04-27T01:58:37;14.30;68.50
49549;DHT22;35450;44.518;7.466;2023-04-27T02:01:53;14.30;68.80
49549;DHT22;35450;44.518;7.466;2023-04-27T02:04:57;14.20;69.00
49549;DHT22;35450;44.518;7.466;2023-04-27T02:08:03;14.10;69.30
49549;DHT22;35450;44.518;7.466;2023-04-27T02:11:07;13.90;69.90
49549;DHT22;35450;44.518;7.466;2023-04-27T02:14:11;14.00;69.80
49549;DHT22;35450;44.518;7.466;2023-04-27T02:17:15;14.10;69.50
49549;DHT22;35450;44.518;7.466;2023-04-27T02:20:19;14.00;69.40
49549;DHT22;35450;44.518;7.466;2023-04-27T02:23:23;13.90;69.50
49549;DHT22;35450;44.518;7.466;2023-04-27T02:26:27;13.90;69.80
49549;DHT22;35450;44.518;7.466;2023-04-27T02:29:35;13.90;69.60
49549;DHT22;35450;44.518;7.466;2023-04-27T02:32:41;13.80;70.00
49549;DHT22;35450;44.518;7.466;2023-04-27T02:35:45;13.80;70.70
49549;DHT22;35450;44.518;7.466;2023-04-27T02:38:49;13.80;70.50
49549;DHT22;35450;44.518;7.466;2023-04-27T02:41:52;13.80;70.30
49549;DHT22;35450;44.518;7.466;2023-04-27T02:44:56;13.70;70.20
49549;DHT22;35450;44.518;7.466;2023-04-27T02:48:00;13.70;70.30
49549;DHT22;35450;44.518;7.466;2023-04-27T02:51:05;13.50;69.80
49549;DHT22;35450;44.518;7.466;2023-04-27T02:54:10;13.60;69.50
49549;DHT22;35450;44.518;7.466;2023-04-27T02:57:14;13.60;69.20
49549;DHT22;35450;44.518;7.466;2023-04-27T03:00:18;13.70;69.00
49549;DHT22;35450;44.518;7.466;2023-04-27T03:03:23;13.70;68.80
49549;DHT22;35450;44.518;7.466;2023-04-27T03:06:27;13.80;68.50
49549;DHT22;35450;44.518;7.466;2023-04-27T03:09:32;13.70;68.90
49549;DHT22;35450;44.518;7.466;2023-04-27T03:12:36;13.80;69.00
49549;DHT22;35450;44.518;7.466;2023-04-27T03:15:40;13.70;68.80
49549;DHT22;35450;44.518;7.466;2023-04-27T03:18:44;13.60;69.50
49549;DHT22;35450;44.518;7.466;2023-04-27T03:21:48;13.60;69.40
49549;DHT22;35450;44.518;7.466;2023-04-27T03:24:52;13.60;68.90
49549;DHT22;35450;44.518;7.466;2023-04-27T03:27:56;13.60;68.70
49549;DHT22;35450;44.518;7.466;2023-04-27T03:31:03;13.60;68.90
49549;DHT22;35450;44.518;7.466;2023-04-27T03:34:06;13.50;69.40
49549;DHT22;35450;44.518;7.466;2023-04-27T03:37:11;13.60;69.00
49549;DHT22;35450;44.518;7.466;2023-04-27T03:40:14;13.60;68.90
49549;DHT22;35450;44.518;7.466;2023-04-27T03:43:19;13.60;68.70
49549;DHT22;35450;44.518;7.466;2023-04-27T03:46:24;13.60;68.60
49549;DHT22;35450;44.518;7.466;2023-04-27T03:49:28;13.40;69.60
49549;DHT22;35450;44.518;7.466;2023-04-27T03:52:33;13.40;69.10
49549;DHT22;35450;44.518;7.466;2023-04-27T03:55:41;13.50;68.90
49549;DHT22;35450;44.518;7.466;2023-04-27T03:58:46;13.50;68.70
49549;DHT22;35450;44.518;7.466;2023-04-27T04:02:06;13.50;68.90
49549;DHT22;35450;44.518;7.466;2023-04-27T04:05:13;13.40;68.90
49549;DHT22;35450;44.518;7.466;2023-04-27T04:08:17;13.40;68.80
49549;DHT22;35450;44.518;7.466;2023-04-27T04:11:21;13.40;68.90
49549;DHT22;35450;44.518;7.466;2023-04-27T04:14:27;13.40;69.00
49549;DHT22;35450;44.518;7.466;2023-04-27T04:17:32;13.40;69.00
49549;DHT22;35450;44.518;7.466;2023-04-27T04:20:36;13.30;69.10
49549;DHT22;35450;44.518;7.466;2023-04-27T04:23:40;13.30;69.00
49549;DHT22;35450;44.518;7.466;2023-04-27T04:26:44;13.40;68.90
49549;DHT22;35450;44.518;7.466;2023-04-27T04:29:48;13.40;69.00
49549;DHT22;35450;44.518;7.466;2023-04-27T04:32:53;13.30;69.20
49549;DHT22;35450;44.518;7.466;2023-04-27T04:35:58;13.40;69.50
49549;DHT22;35450;44.518;7.466;2023-04-27T04:39:02;13.40;69.40
49549;DHT22;35450;44.518;7.466;2023-04-27T04:42:06;13.30;69.50
49549;DHT22;35450;44.518;7.466;2023-04-27T04:45:11;13.40;69.40
49549;DHT22;35450;44.518;7.466;2023-04-27T04:48:15;13.40;69.20
49549;DHT22;35450;44.518;7.466;2023-04-27T04:51:19;13.40;69.20
49549;DHT22;35450;44.518;7.466;2023-04-27T04:54:24;13.30;69.80
49549;DHT22;35450;44.518;7.466;2023-04-27T04:57:29;13.20;69.90
49549;DHT22;35450;44.518;7.466;2023-04-27T05:00:33;13.30;69.70
49549;DHT22;35450;44.518;7.466;2023-04-27T05:03:38;13.40;69.80
49549;DHT22;35450;44.518;7.466;2023-04-27T05:06:42;13.40;70.00
49549;DHT22;35450;44.518;7.466;2023-04-27T05:09:46;13.50;69.90
49549;DHT22;35450;44.518;7.466;2023-04-27T05:12:50;13.50;69.80
49549;DHT22;35450;44.518;7.466;2023-04-27T05:15:53;13.50;69.80
49549;DHT22;35450;44.518;7.466;2023-04-27T05:18:58;13.50;69.70
49549;DHT22;35450;44.518;7.466;2023-04-27T05:22:02;13.60;69.70
49549;DHT22;35450;44.518;7.466;2023-04-27T05:25:06;13.60;69.70
49549;DHT22;35450;44.518;7.466;2023-04-27T05:28:10;13.70;69.70
49549;DHT22;35450;44.518;7.466;2023-04-27T05:31:14;13.70;69.80
49549;DHT22;35450;44.518;7.466;2023-04-27T05:34:19;13.50;71.60
49549;DHT22;35450;44.518;7.466;2023-04-27T05:37:22;13.50;71.50
49549;DHT22;35450;44.518;7.466;2023-04-27T05:40:27;13.70;70.90
49549;DHT22;35450;44.518;7.466;2023-04-27T05:43:31;13.90;70.50
49549;DHT22;35450;44.518;7.466;2023-04-27T05:46:35;13.90;70.90
49549;DHT22;35450;44.518;7.466;2023-04-27T05:49:38;14.00;72.00
49549;DHT22;35450;44.518;7.466;2023-04-27T05:52:42;14.00;72.00
49549;DHT22;35450;44.518;7.466;2023-04-27T05:55:46;14.00;71.90
49549;DHT22;35450;44.518;7.466;2023-04-27T05:58:50;14.10;72.20
49549;DHT22;35450;44.518;7.466;2023-04-27T06:01:54;14.10;72.20
49549;DHT22;35450;44.518;7.466;2023-04-27T06:04:59;14.20;72.50
49549;DHT22;35450;44.518;7.466;2023-04-27T06:08:03;14.30;72.70
49549;DHT22;35450;44.518;7.466;2023-04-27T06:11:07;14.30;72.60
49549;DHT22;35450;44.518;7.466;2023-04-27T06:14:11;14.30;72.80
49549;DHT22;35450;44.518;7.466;2023-04-27T06:17:14;14.40;72.50
49549;DHT22;35450;44.518;7.466;2023-04-27T06:20:19;14.50;72.00
49549;DHT22;35450;44.518;7.466;2023-04-27T06:23:23;14.60;70.90
49549;DHT22;35450;44.518;7.466;2023-04-27T06:26:27;14.60;69.60
49549;DHT22;35450;44.518;7.466;2023-04-27T06:29:31;14.70;68.80
49549;DHT22;35450;44.518;7.466;2023-04-27T06:32:35;14.70;67.20
49549;DHT22;35450;44.518;7.466;2023-04-27T06:35:39;14.80;66.90
49549;DHT22;35450;44.518;7.466;2023-04-27T06:38:43;14.90;66.50
49549;DHT22;35450;44.518;7.466;2023-04-27T06:41:47;14.90;66.20
49549;DHT22;35450;44.518;7.466;2023-04-27T06:44:55;14.90;66.00
49549;DHT22;35450;44.518;7.466;2023-04-27T06:48:00;14.90;66.40
49549;DHT22;35450;44.518;7.466;2023-04-27T06:51:05;15.00;66.40
49549;DHT22;35450;44.518;7.466;2023-04-27T06:54:09;15.00;66.70
49549;DHT22;35450;44.518;7.466;2023-04-27T06:57:14;15.00;67.40
49549;DHT22;35450;44.518;7.466;2023-04-27T07:00:18;15.10;67.50
49549;DHT22;35450;44.518;7.466;2023-04-27T07:03:23;15.10;67.60
49549;DHT22;35450;44.518;7.466;2023-04-27T07:06:27;15.10;67.70
49549;DHT22;35450;44.518;7.466;2023-04-27T07:09:31;15.20;67.10
49549;DHT22;35450;44.518;7.466;2023-04-27T07:12:37;15.10;66.80
49549;DHT22;35450;44.518;7.466;2023-04-27T07:15:41;15.20;66.90
49549;DHT22;35450;44.518;7.466;2023-04-27T07:18:45;15.20;66.50
49549;DHT22;35450;44.518;7.466;2023-04-27T07:21:50;15.20;66.10
49549;DHT22;35450;44.518;7.466;2023-04-27T07:24:54;15.20;65.80
49549;DHT22;35450;44.518;7.466;2023-04-27T07:27:58;15.20;65.40
49549;DHT22;35450;44.518;7.466;2023-04-27T07:31:06;15.30;65.00
49549;DHT22;35450;44.518;7.466;2023-04-27T07:34:10;15.30;64.70
49549;DHT22;35450;44.518;7.466;2023-04-27T07:37:15;15.30;64.80
49549;DHT22;35450;44.518;7.466;2023-04-27T07:40:20;15.30;65.00
49549;DHT22;35450;44.518;7.466;2023-04-27T07:43:27;15.40;65.00
49549;DHT22;35450;44.518;7.466;2023-04-27T07:46:31;15.40;65.30
49549;DHT22;35450;44.518;7.466;2023-04-27T07:49:35;15.40;65.30
49549;DHT22;35450;44.518;7.466;2023-04-27T07:52:40;15.40;65.50
49549;DHT22;35450;44.518;7.466;2023-04-27T07:55:44;15.40;65.40
49549;DHT22;35450;44.518;7.466;2023-04-27T07:58:48;15.40;65.00
49549;DHT22;35450;44.518;7.466;2023-04-27T08:01:52;15.50;63.90
49549;DHT22;35450;44.518;7.466;2023-04-27T08:04:56;15.50;63.40
49549;DHT22;35450;44.518;7.466;2023-04-27T08:08:01;15.60;63.60
49549;DHT22;35450;44.518;7.466;2023-04-27T08:11:08;15.60;63.10
49549;DHT22;35450;44.518;7.466;2023-04-27T08:14:13;15.70;61.20
49549;DHT22;35450;44.518;7.466;2023-04-27T08:17:17;15.70;61.50
49549;DHT22;35450;44.518;7.466;2023-04-27T08:20:22;15.80;61.50
49549;DHT22;35450;44.518;7.466;2023-04-27T08:23:27;15.80;61.90
49549;DHT22;35450;44.518;7.466;2023-04-27T08:26:32;15.80;63.00
49549;DHT22;35450;44.518;7.466;2023-04-27T08:29:36;15.80;62.90
49549;DHT22;35450;44.518;7.466;2023-04-27T08:32:40;15.90;62.30
49549;DHT22;35450;44.518;7.466;2023-04-27T08:35:44;15.90;62.90
49549;DHT22;35450;44.518;7.466;2023-04-27T08:38:48;15.90;63.30
49549;DHT22;35450;44.518;7.466;2023-04-27T08:41:52;16.00;62.10
49549;DHT22;35450;44.518;7.466;2023-04-27T08:44:56;16.00;61.60
49549;DHT22;35450;44.518;7.466;2023-04-27T08:48:00;16.00;62.20
49549;DHT22;35450;44.518;7.466;2023-04-27T08:51:06;16.10;61.50
49549;DHT22;35450;44.518;7.466;2023-04-27T08:54:12;16.10;61.80
49549;DHT22;35450;44.518;7.466;2023-04-27T08:57:16;16.10;62.00
49549;DHT22;35450;44.518;7.466;2023-04-27T09:00:20;16.20;61.50
49549;DHT22;35450;44.518;7.466;2023-04-27T09:03:25;16.20;62.80
49549;DHT22;35450;44.518;7.466;2023-04-27T09:06:33;16.20;60.40
49549;DHT22;35450;44.518;7.466;2023-04-27T09:09:38;16.20;60.50
49549;DHT22;35450;44.518;7.466;2023-04-27T09:12:42;16.20;62.00
49549;DHT22;35450;44.518;7.466;2023-04-27T09:15:57;16.30;61.60
49549;DHT22;35450;44.518;7.466;2023-04-27T09:19:01;16.40;61.40
49549;DHT22;35450;44.518;7.466;2023-04-27T09:22:09;16.40;61.30
49549;DHT22;35450;44.518;7.466;2023-04-27T09:28:29;16.40;61.50
49549;DHT22;35450;44.518;7.466;2023-04-27T09:31:36;16.50;62.40
49549;DHT22;35450;44.518;7.466;2023-04-27T09:34:41;16.50;62.40
49549;DHT22;35450;44.518;7.466;2023-04-27T09:37:45;16.50;61.80
49549;DHT22;35450;44.518;7.466;2023-04-27T09:40:50;16.60;62.50
49549;DHT22;35450;44.518;7.466;2023-04-27T09:43:56;16.60;62.30
49549;DHT22;35450;44.518;7.466;2023-04-27T09:47:01;16.60;62.60
49549;DHT22;35450;44.518;7.466;2023-04-27T09:50:05;16.60;63.20
49549;DHT22;35450;44.518;7.466;2023-04-27T09:53:13;16.70;63.20
49549;DHT22;35450;44.518;7.466;2023-04-27T09:56:41;16.70;63.50
49549;DHT22;35450;44.518;7.466;2023-04-27T09:59:58;16.70;62.10
49549;DHT22;35450;44.518;7.466;2023-04-27T10:03:25;16.80;63.50
49549;DHT22;35450;44.518;7.466;2023-04-27T10:09:41;16.90;65.50
49549;DHT22;35450;44.518;7.466;2023-04-27T10:13:22;17.00;64.10
49549;DHT22;35450;44.518;7.466;2023-04-27T10:16:26;17.00;64.50
49549;DHT22;35450;44.518;7.466;2023-04-27T10:19:30;17.00;64.10
49549;DHT22;35450;44.518;7.466;2023-04-27T10:22:43;17.10;64.10
49549;DHT22;35450;44.518;7.466;2023-04-27T10:25:48;17.10;63.40
49549;DHT22;35450;44.518;7.466;2023-04-27T10:29:05;17.00;63.20
49549;DHT22;35450;44.518;7.466;2023-04-27T10:32:19;17.00;63.80
49549;DHT22;35450;44.518;7.466;2023-04-27T10:35:37;17.10;64.20
49549;DHT22;35450;44.518;7.466;2023-04-27T10:38:41;17.20;62.80
49549;DHT22;35450;44.518;7.466;2023-04-27T10:41:54;17.20;63.20
49549;DHT22;35450;44.518;7.466;2023-04-27T10:44:58;17.20;64.20
49549;DHT22;35450;44.518;7.466;2023-04-27T10:48:03;17.30;63.70
49549;DHT22;35450;44.518;7.466;2023-04-27T10:51:08;17.30;63.80
49549;DHT22;35450;44.518;7.466;2023-04-27T10:54:12;17.30;63.60
49549;DHT22;35450;44.518;7.466;2023-04-27T10:57:16;17.30;63.70
49549;DHT22;35450;44.518;7.466;2023-04-27T11:00:26;17.40;64.20
49549;DHT22;35450;44.518;7.466;2023-04-27T11:03:30;17.50;64.20
49549;DHT22;35450;44.518;7.466;2023-04-27T11:06:44;17.50;63.50
49549;DHT22;35450;44.518;7.466;2023-04-27T11:09:51;17.50;63.40
49549;DHT22;35450;44.518;7.466;2023-04-27T11:12:55;17.50;64.90
49549;DHT22;35450;44.518;7.466;2023-04-27T11:16:00;17.60;63.20
49549;DHT22;35450;44.518;7.466;2023-04-27T11:19:04;17.70;62.30
49549;DHT22;35450;44.518;7.466;2023-04-27T11:22:09;17.70;62.10
49549;DHT22;35450;44.518;7.466;2023-04-27T11:25:14;17.70;62.40
49549;DHT22;35450;44.518;7.466;2023-04-27T11:28:23;17.70;62.50
49549;DHT22;35450;44.518;7.466;2023-04-27T11:31:37;17.80;62.30
49549;DHT22;35450;44.518;7.466;2023-04-27T11:34:48;17.80;61.80
49549;DHT22;35450;44.518;7.466;2023-04-27T11:37:56;17.80;61.90
49549;DHT22;35450;44.518;7.466;2023-04-27T11:41:05;17.90;61.90
49549;DHT22;35450;44.518;7.466;2023-04-27T11:44:10;18.00;61.70
49549;DHT22;35450;44.518;7.466;2023-04-27T11:47:17;18.00;61.40
49549;DHT22;35450;44.518;7.466;2023-04-27T11:50:25;18.00;62.30
49549;DHT22;35450;44.518;7.466;2023-04-27T11:53:31;18.30;62.50
49549;DHT22;35450;44.518;7.466;2023-04-27T11:56:40;18.30;62.30
49549;DHT22;35450;44.518;7.466;2023-04-27T11:59:45;18.50;62.20
49549;DHT22;35450;44.518;7.466;2023-04-27T12:02:50;18.60;61.90
49549;DHT22;35450;44.518;7.466;2023-04-27T12:05:55;18.70;61.10
49549;DHT22;35450;44.518;7.466;2023-04-27T12:08:59;18.70;60.30
49549;DHT22;35450;44.518;7.466;2023-04-27T12:12:03;18.70;59.50
49549;DHT22;35450;44.518;7.466;2023-04-27T12:15:08;18.70;59.50
49549;DHT22;35450;44.518;7.466;2023-04-27T12:18:12;18.70;60.70
49549;DHT22;35450;44.518;7.466;2023-04-27T12:21:17;18.60;60.50
49549;DHT22;35450;44.518;7.466;2023-04-27T12:24:21;18.70;60.00
49549;DHT22;35450;44.518;7.466;2023-04-27T12:27:25;18.70;60.60
49549;DHT22;35450;44.518;7.466;2023-04-27T12:30:29;18.70;60.10
49549;DHT22;35450;44.518;7.466;2023-04-27T12:33:33;18.70;60.30
49549;DHT22;35450;44.518;7.466;2023-04-27T12:36:37;18.70;59.30
49549;DHT22;35450;44.518;7.466;2023-04-27T12:39:41;18.70;59.60
49549;DHT22;35450;44.518;7.466;2023-04-27T12:42:45;18.70;61.20
49549;DHT22;35450;44.518;7.466;2023-04-27T12:45:49;18.70;60.20
49549;DHT22;35450;44.518;7.466;2023-04-27T12:48:53;18.80;59.50
49549;DHT22;35450;44.518;7.466;2023-04-27T12:51:59;18.70;60.10
49549;DHT22;35450;44.518;7.466;2023-04-27T12:55:03;18.80;61.10
49549;DHT22;35450;44.518;7.466;2023-04-27T12:58:09;18.70;61.60
49549;DHT22;35450;44.518;7.466;2023-04-27T13:01:12;18.80;61.90
49549;DHT22;35450;44.518;7.466;2023-04-27T13:04:20;18.80;61.40
49549;DHT22;35450;44.518;7.466;2023-04-27T13:07:24;18.90;62.10
49549;DHT22;35450;44.518;7.466;2023-04-27T13:10:29;19.10;60.70
49549;DHT22;35450;44.518;7.466;2023-04-27T13:13:33;19.10;60.60
49549;DHT22;35450;44.518;7.466;2023-04-27T13:16:37;19.20;60.20
49549;DHT22;35450;44.518;7.466;2023-04-27T13:19:41;19.30;59.90
49549;DHT22;35450;44.518;7.466;2023-04-27T13:22:46;19.20;61.00
49549;DHT22;35450;44.518;7.466;2023-04-27T13:25:50;19.20;60.90
49549;DHT22;35450;44.518;7.466;2023-04-27T13:28:55;19.20;60.30
49549;DHT22;35450;44.518;7.466;2023-04-27T13:32:00;19.10;62.00
49549;DHT22;35450;44.518;7.466;2023-04-27T13:35:04;19.10;60.50
49549;DHT22;35450;44.518;7.466;2023-04-27T13:38:08;19.10;60.70
49549;DHT22;35450;44.518;7.466;2023-04-27T13:41:12;19.10;60.30
49549;DHT22;35450;44.518;7.466;2023-04-27T13:44:16;19.20;60.80
49549;DHT22;35450;44.518;7.466;2023-04-27T13:47:21;19.30;59.80
49549;DHT22;35450;44.518;7.466;2023-04-27T13:50:27;19.30;60.20
49549;DHT22;35450;44.518;7.466;2023-04-27T13:53:31;19.40;59.60
49549;DHT22;35450;44.518;7.466;2023-04-27T13:56:35;19.40;59.70
49549;DHT22;35450;44.518;7.466;2023-04-27T13:59:40;19.40;59.90
49549;DHT22;35450;44.518;7.466;2023-04-27T14:02:45;19.50;59.70
49549;DHT22;35450;44.518;7.466;2023-04-27T14:05:49;19.40;60.20
49549;DHT22;35450;44.518;7.466;2023-04-27T14:08:56;19.40;60.10
49549;DHT22;35450;44.518;7.466;2023-04-27T14:12:00;19.50;60.70
49549;DHT22;35450;44.518;7.466;2023-04-27T14:15:04;19.40;59.90
49549;DHT22;35450;44.518;7.466;2023-04-27T14:18:08;19.40;60.00
49549;DHT22;35450;44.518;7.466;2023-04-27T14:21:12;19.50;60.60
49549;DHT22;35450;44.518;7.466;2023-04-27T14:24:16;19.50;61.10
49549;DHT22;35450;44.518;7.466;2023-04-27T14:27:21;19.40;61.80
49549;DHT22;35450;44.518;7.466;2023-04-27T14:30:25;19.50;61.80
49549;DHT22;35450;44.518;7.466;2023-04-27T14:33:29;19.60;61.40
49549;DHT22;35450;44.518;7.466;2023-04-27T14:36:33;19.50;61.00
49549;DHT22;35450;44.518;7.466;2023-04-27T14:39:37;19.50;61.10
49549;DHT22;35450;44.518;7.466;2023-04-27T14:42:41;19.60;61.70
49549;DHT22;35450;44.518;7.466;2023-04-27T14:45:45;19.70;61.70
49549;DHT22;35450;44.518;7.466;2023-04-27T14:48:49;19.90;61.50
49549;DHT22;35450;44.518;7.466;2023-04-27T14:51:53;19.70;61.20
49549;DHT22;35450;44.518;7.466;2023-04-27T14:54:57;19.60;61.80
49549;DHT22;35450;44.518;7.466;2023-04-27T14:58:01;19.50;62.20
49549;DHT22;35450;44.518;7.466;2023-04-27T15:01:06;19.60;63.40
49549;DHT22;35450;44.518;7.466;2023-04-27T15:04:10;19.60;62.90
49549;DHT22;35450;44.518;7.466;2023-04-27T15:07:14;19.60;61.60
49549;DHT22;35450;44.518;7.466;2023-04-27T15:10:18;19.70;61.40
49549;DHT22;35450;44.518;7.466;2023-04-27T15:13:22;19.80;61.10
49549;DHT22;35450;44.518;7.466;2023-04-27T15:16:27;19.90;61.60
49549;DHT22;35450;44.518;7.466;2023-04-27T15:19:31;19.80;60.90
49549;DHT22;35450;44.518;7.466;2023-04-27T15:22:35;19.90;61.50
49549;DHT22;35450;44.518;7.466;2023-04-27T15:25:41;20.00;60.30
49549;DHT22;35450;44.518;7.466;2023-04-27T15:28:45;20.10;60.10
49549;DHT22;35450;44.518;7.466;2023-04-27T15:31:50;20.20;60.50
49549;DHT22;35450;44.518;7.466;2023-04-27T15:34:55;20.20;60.00
49549;DHT22;35450;44.518;7.466;2023-04-27T15:38:00;20.40;59.90
49549;DHT22;35450;44.518;7.466;2023-04-27T15:41:04;20.60;59.30
49549;DHT22;35450;44.518;7.466;2023-04-27T15:44:08;20.80;59.20
49549;DHT22;35450;44.518;7.466;2023-04-27T15:47:13;21.10;57.40
49549;DHT22;35450;44.518;7.466;2023-04-27T15:50:18;21.40;56.60
49549;DHT22;35450;44.518;7.466;2023-04-27T15:53:22;21.70;55.70
49549;DHT22;35450;44.518;7.466;2023-04-27T15:56:26;22.00;55.50
49549;DHT22;35450;44.518;7.466;2023-04-27T15:59:31;22.40;54.40
49549;DHT22;35450;44.518;7.466;2023-04-27T16:02:38;22.90;53.60
49549;DHT22;35450;44.518;7.466;2023-04-27T16:05:42;23.60;53.40
49549;DHT22;35450;44.518;7.466;2023-04-27T16:08:46;24.30;52.00
49549;DHT22;35450;44.518;7.466;2023-04-27T16:11:51;24.90;51.00
49549;DHT22;35450;44.518;7.466;2023-04-27T16:14:55;25.40;50.50
49549;DHT22;35450;44.518;7.466;2023-04-27T16:18:03;25.20;49.40
49549;DHT22;35450;44.518;7.466;2023-04-27T16:21:07;24.60;50.20
49549;DHT22;35450;44.518;7.466;2023-04-27T16:24:12;24.30;51.20
49549;DHT22;35450;44.518;7.466;2023-04-27T16:27:16;23.70;51.80
49549;DHT22;35450;44.518;7.466;2023-04-27T16:30:20;23.00;53.70
49549;DHT22;35450;44.518;7.466;2023-04-27T16:33:25;22.50;53.90
49549;DHT22;35450;44.518;7.466;2023-04-27T16:36:29;22.20;54.50
49549;DHT22;35450;44.518;7.466;2023-04-27T16:39:36;22.00;55.40
49549;DHT22;35450;44.518;7.466;2023-04-27T16:42:40;21.80;55.80
49549;DHT22;35450;44.518;7.466;2023-04-27T16:45:44;21.70;55.80
49549;DHT22;35450;44.518;7.466;2023-04-27T16:48:49;21.60;56.00
49549;DHT22;35450;44.518;7.466;2023-04-27T16:51:53;21.40;56.30
49549;DHT22;35450;44.518;7.466;2023-04-27T16:54:58;21.20;56.50
49549;DHT22;35450;44.518;7.466;2023-04-27T16:58:02;21.10;56.80
49549;DHT22;35450;44.518;7.466;2023-04-27T17:01:06;20.90;56.90
49549;DHT22;35450;44.518;7.466;2023-04-27T17:04:10;20.80;57.00
49549;DHT22;35450;44.518;7.466;2023-04-27T17:07:14;20.60;58.10
49549;DHT22;35450;44.518;7.466;2023-04-27T17:10:18;20.50;58.30
49549;DHT22;35450;44.518;7.466;2023-04-27T17:13:23;20.30;59.00
49549;DHT22;35450;44.518;7.466;2023-04-27T17:16:27;20.30;59.00
49549;DHT22;35450;44.518;7.466;2023-04-27T17:19:31;20.20;58.90
49549;DHT22;35450;44.518;7.466;2023-04-27T17:22:36;20.20;58.80
49549;DHT22;35450;44.518;7.466;2023-04-27T17:25:40;20.10;59.10
49549;DHT22;35450;44.518;7.466;2023-04-27T17:28:47;20.10;59.20
49549;DHT22;35450;44.518;7.466;2023-04-27T17:31:52;20.00;59.40
49549;DHT22;35450;44.518;7.466;2023-04-27T17:34:55;20.00;59.60
49549;DHT22;35450;44.518;7.466;2023-04-27T17:38:00;19.80;62.00
49549;DHT22;35450;44.518;7.466;2023-04-27T17:41:04;19.60;62.10
49549;DHT22;35450;44.518;7.466;2023-04-27T17:44:10;19.40;62.30
49549;DHT22;35450;44.518;7.466;2023-04-27T17:47:15;19.30;62.50
49549;DHT22;35450;44.518;7.466;2023-04-27T17:50:22;19.20;62.40
49549;DHT22;35450;44.518;7.466;2023-04-27T17:53:26;19.20;62.30
49549;DHT22;35450;44.518;7.466;2023-04-27T17:56:30;19.20;62.50
49549;DHT22;35450;44.518;7.466;2023-04-27T17:59:35;19.20;63.60
49549;DHT22;35450;44.518;7.466;2023-04-27T18:02:39;19.20;63.40
49549;DHT22;35450;44.518;7.466;2023-04-27T18:05:44;19.20;61.90
49549;DHT22;35450;44.518;7.466;2023-04-27T18:08:48;19.10;61.80
49549;DHT22;35450;44.518;7.466;2023-04-27T18:11:52;19.10;63.20
49549;DHT22;35450;44.518;7.466;2023-04-27T18:14:56;19.00;62.70
49549;DHT22;35450;44.518;7.466;2023-04-27T18:18:01;19.00;62.80
49549;DHT22;35450;44.518;7.466;2023-04-27T18:21:05;19.00;62.80
49549;DHT22;35450;44.518;7.466;2023-04-27T18:24:09;18.80;62.70
49549;DHT22;35450;44.518;7.466;2023-04-27T18:27:13;18.70;63.20
49549;DHT22;35450;44.518;7.466;2023-04-27T18:30:21;18.70;63.70
49549;DHT22;35450;44.518;7.466;2023-04-27T18:33:25;18.60;63.60
49549;DHT22;35450;44.518;7.466;2023-04-27T18:36:29;18.50;63.70
49549;DHT22;35450;44.518;7.466;2023-04-27T18:39:34;18.40;63.80
49549;DHT22;35450;44.518;7.466;2023-04-27T18:42:38;18.30;64.00
49549;DHT22;35450;44.518;7.466;2023-04-27T18:45:42;18.20;64.10
49549;DHT22;35450;44.518;7.466;2023-04-27T18:48:46;18.10;63.80
49549;DHT22;35450;44.518;7.466;2023-04-27T18:51:50;18.10;63.90
49549;DHT22;35450;44.518;7.466;2023-04-27T18:54:54;17.90;64.50
49549;DHT22;35450;44.518;7.466;2023-04-27T18:57:58;17.80;65.00
49549;DHT22;35450;44.518;7.466;2023-04-27T19:01:02;17.80;65.00
49549;DHT22;35450;44.518;7.466;2023-04-27T19:04:06;17.70;64.90
49549;DHT22;35450;44.518;7.466;2023-04-27T19:07:10;17.70;64.80
49549;DHT22;35450;44.518;7.466;2023-04-27T19:10:13;17.60;64.70
49549;DHT22;35450;44.518;7.466;2023-04-27T19:13:18;17.60;64.80
49549;DHT22;35450;44.518;7.466;2023-04-27T19:16:22;17.50;64.90
49549;DHT22;35450;44.518;7.466;2023-04-27T19:19:27;17.40;65.50
49549;DHT22;35450;44.518;7.466;2023-04-27T19:22:30;17.30;65.20
49549;DHT22;35450;44.518;7.466;2023-04-27T19:25:39;17.40;65.40
49549;DHT22;35450;44.518;7.466;2023-04-27T19:28:43;17.20;65.10
49549;DHT22;35450;44.518;7.466;2023-04-27T19:31:47;17.20;65.20
49549;DHT22;35450;44.518;7.466;2023-04-27T19:34:54;17.10;65.20